sensor_id;sensor_type;location;lat;lon;timestamp;temperature;humidity
54082;DHT22;39986;50.770;0.266;2022-07-06T00:01:21;18.40;99.90
54082;DHT22;39986;50.770;0.266;2022-07-06T00:03:47;18.30;99.90
54082;DHT22;39986;50.770;0.266;2022-07-06T00:06:13;18.30;99.90
54082;DHT22;39986;50.770;0.266;2022-07-06T00:08:38;18.30;99.90
54082;DHT22;39986;50.770;0.266;2022-07-06T00:11:04;18.30;99.90
54082;DHT22;39986;50.770;0.266;2022-07-06T00:13:30;18.30;99.90
54082;DHT22;39986;50.770;0.266;2022-07-06T00:15:56;18.30;99.90
54082;DHT22;39986;50.770;0.266;2022-07-06T00:18:21;18.30;99.90
54082;DHT22;39986;50.770;0.266;2022-07-06T00:20:47;18.20;99.90
54082;DHT22;39986;50.770;0.266;2022-07-06T00:23:12;18.20;99.90
54082;DHT22;39986;50.770;0.266;2022-07-06T00:25:38;18.10;99.90
54082;DHT22;39986;50.770;0.266;2022-07-06T00:28:04;18.10;99.90
54082;DHT22;39986;50.770;0.266;2022-07-06T00:30:30;18.10;99.90
54082;DHT22;39986;50.770;0.266;2022-07-06T00:32:55;18.10;99.90
54082;DHT22;39986;50.770;0.266;2022-07-06T00:35:21;18.10;99.90
54082;DHT22;39986;50.770;0.266;2022-07-06T00:37:46;18.00;99.90
54082;DHT22;39986;50.770;0.266;2022-07-06T00:40:12;18.00;99.90
54082;DHT22;39986;50.770;0.266;2022-07-06T00:42:47;18.00;99.90
54082;DHT22;39986;50.770;0.266;2022-07-06T00:45:13;18.00;99.90
54082;DHT22;39986;50.770;0.266;2022-07-06T00:47:39;18.00;99.90
54082;DHT22;39986;50.770;0.266;2022-07-06T00:50:05;18.00;99.90
54082;DHT22;39986;50.770;0.266;2022-07-06T00:52:41;17.90;99.90
54082;DHT22;39986;50.770;0.266;2022-07-06T00:55:08;17.90;99.90
54082;DHT22;39986;50.770;0.266;2022-07-06T00:57:34;17.90;99.90
54082;DHT22;39986;50.770;0.266;2022-07-06T00:59:59;17.90;99.90
54082;DHT22;39986;50.770;0.266;2022-07-06T01:02:26;17.80;99.90
54082;DHT22;39986;50.770;0.266;2022-07-06T01:04:51;17.70;99.90
54082;DHT22;39986;50.770;0.266;2022-07-06T01:07:17;17.80;99.90
54082;DHT22;39986;50.770;0.266;2022-07-06T01:09:42;17.80;99.90
54082;DHT22;39986;50.770;0.266;2022-07-06T01:12:09;17.70;99.90
54082;DHT22;39986;50.770;0.266;2022-07-06T01:14:34;17.70;99.90
54082;DHT22;39986;50.770;0.266;2022-07-06T01:17:26;17.70;99.90
54082;DHT22;39986;50.770;0.266;2022-07-06T01:19:55;17.70;99.90
54082;DHT22;39986;50.770;0.266;2022-07-06T01:22:21;17.60;99.90
54082;DHT22;39986;50.770;0.266;2022-07-06T01:24:46;17.70;99.90
54082;DHT22;39986;50.770;0.266;2022-07-06T01:27:12;17.70;99.90
54082;DHT22;39986;50.770;0.266;2022-07-06T01:29:37;17.70;99.90
54082;DHT22;39986;50.770;0.266;2022-07-06T01:32:03;17.60;99.90
54082;DHT22;39986;50.770;0.266;2022-07-06T01:34:29;17.60;99.90
54082;DHT22;39986;50.770;0.266;2022-07-06T01:36:54;17.60;99.90
54082;DHT22;39986;50.770;0.266;2022-07-06T01:39:20;17.60;99.90
54082;DHT22;39986;50.770;0.266;2022-07-06T01:41:45;17.60;99.90
54082;DHT22;39986;50.770;0.266;2022-07-06T01:44:11;17.50;99.90
54082;DHT22;39986;50.770;0.266;2022-07-06T01:46:36;17.50;99.90
54082;DHT22;39986;50.770;0.266;2022-07-06T01:49:02;17.50;99.90
54082;DHT22;39986;50.770;0.266;2022-07-06T01:51:29;17.50;99.90
54082;DHT22;39986;50.770;0.266;2022-07-06T01:53:54;17.50;99.90
54082;DHT22;39986;50.770;0.266;2022-07-06T01:56:20;17.40;99.90
54082;DHT22;39986;50.770;0.266;2022-07-06T01:58:46;17.30;99.90
54082;DHT22;39986;50.770;0.266;2022-07-06T02:01:13;17.30;99.90
54082;DHT22;39986;50.770;0.266;2022-07-06T02:03:38;17.20;99.90
54082;DHT22;39986;50.770;0.266;2022-07-06T02:06:05;17.20;99.90
54082;DHT22;39986;50.770;0.266;2022-07-06T02:08:31;17.10;99.90
54082;DHT22;39986;50.770;0.266;2022-07-06T02:10:57;17.10;99.90
54082;DHT22;39986;50.770;0.266;2022-07-06T02:13:22;17.00;99.90
54082;DHT22;39986;50.770;0.266;2022-07-06T02:15:48;17.10;99.90
54082;DHT22;39986;50.770;0.266;2022-07-06T02:18:13;17.10;99.90
54082;DHT22;39986;50.770;0.266;2022-07-06T02:20:39;17.00;99.90
54082;DHT22;39986;50.770;0.266;2022-07-06T02:23:05;17.00;99.90
54082;DHT22;39986;50.770;0.266;2022-07-06T02:25:56;16.90;99.90
54082;DHT22;39986;50.770;0.266;2022-07-06T02:28:22;16.90;99.90
54082;DHT22;39986;50.770;0.266;2022-07-06T02:30:47;16.80;99.90
54082;DHT22;39986;50.770;0.266;2022-07-06T02:33:13;16.80;99.90
54082;DHT22;39986;50.770;0.266;2022-07-06T02:35:38;16.80;99.90
54082;DHT22;39986;50.770;0.266;2022-07-06T02:38:07;16.80;99.90
54082;DHT22;39986;50.770;0.266;2022-07-06T02:40:33;16.70;99.90
54082;DHT22;39986;50.770;0.266;2022-07-06T02:42:58;16.70;99.90
54082;DHT22;39986;50.770;0.266;2022-07-06T02:45:24;16.60;99.90
54082;DHT22;39986;50.770;0.266;2022-07-06T02:47:49;16.60;99.90
54082;DHT22;39986;50.770;0.266;2022-07-06T02:50:16;16.50;99.90
54082;DHT22;39986;50.770;0.266;2022-07-06T02:52:41;16.50;99.90
54082;DHT22;39986;50.770;0.266;2022-07-06T02:55:07;16.50;99.90
54082;DHT22;39986;50.770;0.266;2022-07-06T02:57:33;16.50;99.90
54082;DHT22;39986;50.770;0.266;2022-07-06T02:59:58;16.40;99.90
54082;DHT22;39986;50.770;0.266;2022-07-06T03:02:24;16.40;99.90
54082;DHT22;39986;50.770;0.266;2022-07-06T03:04:49;16.40;99.90
54082;DHT22;39986;50.770;0.266;2022-07-06T03:07:15;16.40;99.90
54082;DHT22;39986;50.770;0.266;2022-07-06T03:09:40;16.30;99.90
54082;DHT22;39986;50.770;0.266;2022-07-06T03:12:06;16.30;99.90
54082;DHT22;39986;50.770;0.266;2022-07-06T03:14:32;16.30;99.90
54082;DHT22;39986;50.770;0.266;2022-07-06T03:16:59;16.20;99.90
54082;DHT22;39986;50.770;0.266;2022-07-06T03:19:25;16.20;99.90
54082;DHT22;39986;50.770;0.266;2022-07-06T03:21:50;16.10;99.90
54082;DHT22;39986;50.770;0.266;2022-07-06T03:24:16;16.10;99.90
54082;DHT22;39986;50.770;0.266;2022-07-06T03:26:41;16.00;99.90
54082;DHT22;39986;50.770;0.266;2022-07-06T03:29:07;16.00;99.90
54082;DHT22;39986;50.770;0.266;2022-07-06T03:31:58;16.00;99.90
54082;DHT22;39986;50.770;0.266;2022-07-06T03:34:27;15.80;99.90
54082;DHT22;39986;50.770;0.266;2022-07-06T03:36:53;15.80;99.90
54082;DHT22;39986;50.770;0.266;2022-07-06T03:39:18;15.90;99.90
54082;DHT22;39986;50.770;0.266;2022-07-06T03:41:44;15.80;99.90
54082;DHT22;39986;50.770;0.266;2022-07-06T03:44:09;15.90;99.90
54082;DHT22;39986;50.770;0.266;2022-07-06T03:46:35;15.90;99.90
54082;DHT22;39986;50.770;0.266;2022-07-06T03:49:00;15.80;99.90
54082;DHT22;39986;50.770;0.266;2022-07-06T03:51:26;15.80;99.90
54082;DHT22;39986;50.770;0.266;2022-07-06T03:53:52;15.80;99.90
54082;DHT22;39986;50.770;0.266;2022-07-06T03:56:18;15.70;99.90
54082;DHT22;39986;50.770;0.266;2022-07-06T03:58:55;15.70;99.90
54082;DHT22;39986;50.770;0.266;2022-07-06T04:01:21;15.80;99.90
54082;DHT22;39986;50.770;0.266;2022-07-06T04:03:47;15.80;99.90
54082;DHT22;39986;50.770;0.266;2022-07-06T04:06:13;15.80;99.90
54082;DHT22;39986;50.770;0.266;2022-07-06T04:08:38;15.70;99.90
54082;DHT22;39986;50.770;0.266;2022-07-06T04:11:04;15.70;99.90
54082;DHT22;39986;50.770;0.266;2022-07-06T04:13:30;15.80;99.90
54082;DHT22;39986;50.770;0.266;2022-07-06T04:15:57;15.80;99.90
54082;DHT22;39986;50.770;0.266;2022-07-06T04:18:23;15.70;99.90
54082;DHT22;39986;50.770;0.266;2022-07-06T04:20:49;15.70;99.90
54082;DHT22;39986;50.770;0.266;2022-07-06T04:23:14;15.70;99.90
54082;DHT22;39986;50.770;0.266;2022-07-06T04:25:40;15.80;99.90
54082;DHT22;39986;50.770;0.266;2022-07-06T04:28:05;15.80;99.90
54082;DHT22;39986;50.770;0.266;2022-07-06T04:30:31;15.80;99.90
54082;DHT22;39986;50.770;0.266;2022-07-06T04:32:56;15.80;99.90
54082;DHT22;39986;50.770;0.266;2022-07-06T04:35:22;15.90;99.90
54082;DHT22;39986;50.770;0.266;2022-07-06T04:37:48;15.90;99.90
54082;DHT22;39986;50.770;0.266;2022-07-06T04:40:14;15.90;99.90
54082;DHT22;39986;50.770;0.266;2022-07-06T04:42:39;16.00;99.90
54082;DHT22;39986;50.770;0.266;2022-07-06T04:45:05;16.00;99.90
54082;DHT22;39986;50.770;0.266;2022-07-06T04:47:31;16.10;99.90
54082;DHT22;39986;50.770;0.266;2022-07-06T04:49:56;16.20;99.90
54082;DHT22;39986;50.770;0.266;2022-07-06T04:52:22;16.20;99.90
54082;DHT22;39986;50.770;0.266;2022-07-06T04:54:47;16.20;99.90
54082;DHT22;39986;50.770;0.266;2022-07-06T04:57:13;16.20;99.90
54082;DHT22;39986;50.770;0.266;2022-07-06T04:59:38;16.20;99.90
54082;DHT22;39986;50.770;0.266;2022-07-06T05:02:04;16.30;99.90
54082;DHT22;39986;50.770;0.266;2022-07-06T05:04:29;16.40;99.90
54082;DHT22;39986;50.770;0.266;2022-07-06T05:06:55;16.50;99.90
54082;DHT22;39986;50.770;0.266;2022-07-06T05:09:21;16.60;99.90
54082;DHT22;39986;50.770;0.266;2022-07-06T05:11:46;16.70;99.90
54082;DHT22;39986;50.770;0.266;2022-07-06T05:14:12;16.80;99.90
54082;DHT22;39986;50.770;0.266;2022-07-06T05:16:37;16.90;99.90
54082;DHT22;39986;50.770;0.266;2022-07-06T05:19:03;17.00;99.90
54082;DHT22;39986;50.770;0.266;2022-07-06T05:21:28;17.10;99.90
54082;DHT22;39986;50.770;0.266;2022-07-06T05:23:54;17.20;99.90
54082;DHT22;39986;50.770;0.266;2022-07-06T05:26:20;17.50;99.90
54082;DHT22;39986;50.770;0.266;2022-07-06T05:28:45;17.80;99.90
54082;DHT22;39986;50.770;0.266;2022-07-06T05:31:11;17.90;99.90
54082;DHT22;39986;50.770;0.266;2022-07-06T05:33:36;17.90;99.90
54082;DHT22;39986;50.770;0.266;2022-07-06T05:36:02;17.90;99.90
54082;DHT22;39986;50.770;0.266;2022-07-06T05:38:28;17.90;99.90
54082;DHT22;39986;50.770;0.266;2022-07-06T05:40:53;17.90;99.90
54082;DHT22;39986;50.770;0.266;2022-07-06T05:43:19;17.90;99.90
54082;DHT22;39986;50.770;0.266;2022-07-06T05:45:44;17.90;99.90
54082;DHT22;39986;50.770;0.266;2022-07-06T05:48:10;17.90;99.90
54082;DHT22;39986;50.770;0.266;2022-07-06T05:50:54;18.00;99.90
54082;DHT22;39986;50.770;0.266;2022-07-06T05:53:19;17.90;99.90
54082;DHT22;39986;50.770;0.266;2022-07-06T05:55:46;17.90;99.90
54082;DHT22;39986;50.770;0.266;2022-07-06T05:58:12;17.90;99.90
54082;DHT22;39986;50.770;0.266;2022-07-06T06:00:37;18.00;99.90
54082;DHT22;39986;50.770;0.266;2022-07-06T06:03:03;18.10;99.90
54082;DHT22;39986;50.770;0.266;2022-07-06T06:05:29;18.40;99.90
54082;DHT22;39986;50.770;0.266;2022-07-06T06:07:54;18.60;99.90
54082;DHT22;39986;50.770;0.266;2022-07-06T06:10:20;18.80;99.90
54082;DHT22;39986;50.770;0.266;2022-07-06T06:12:47;19.00;99.90
54082;DHT22;39986;50.770;0.266;2022-07-06T06:15:13;19.00;99.90
54082;DHT22;39986;50.770;0.266;2022-07-06T06:17:39;19.00;99.90
54082;DHT22;39986;50.770;0.266;2022-07-06T06:20:05;19.10;99.90
54082;DHT22;39986;50.770;0.266;2022-07-06T06:22:43;19.10;99.90
54082;DHT22;39986;50.770;0.266;2022-07-06T06:25:08;19.10;99.90
54082;DHT22;39986;50.770;0.266;2022-07-06T06:27:34;19.10;99.90
54082;DHT22;39986;50.770;0.266;2022-07-06T06:30:00;19.10;99.90
54082;DHT22;39986;50.770;0.266;2022-07-06T06:32:25;19.10;99.90
54082;DHT22;39986;50.770;0.266;2022-07-06T06:34:51;19.10;99.90
54082;DHT22;39986;50.770;0.266;2022-07-06T06:37:16;19.10;99.90
54082;DHT22;39986;50.770;0.266;2022-07-06T06:39:42;19.10;99.90
54082;DHT22;39986;50.770;0.266;2022-07-06T06:42:07;19.20;99.90
54082;DHT22;39986;50.770;0.266;2022-07-06T06:44:33;19.30;99.90
54082;DHT22;39986;50.770;0.266;2022-07-06T06:46:59;19.40;99.90
54082;DHT22;39986;50.770;0.266;2022-07-06T06:49:24;19.50;99.90
54082;DHT22;39986;50.770;0.266;2022-07-06T06:51:50;19.70;99.90
54082;DHT22;39986;50.770;0.266;2022-07-06T06:54:15;19.70;99.90
54082;DHT22;39986;50.770;0.266;2022-07-06T06:56:41;19.70;99.90
54082;DHT22;39986;50.770;0.266;2022-07-06T06:59:06;19.70;99.90
54082;DHT22;39986;50.770;0.266;2022-07-06T07:01:32;19.60;99.90
54082;DHT22;39986;50.770;0.266;2022-07-06T07:03:58;19.40;99.90
54082;DHT22;39986;50.770;0.266;2022-07-06T07:06:23;19.40;99.90
54082;DHT22;39986;50.770;0.266;2022-07-06T07:08:49;19.50;99.90
54082;DHT22;39986;50.770;0.266;2022-07-06T07:11:14;19.70;99.90
54082;DHT22;39986;50.770;0.266;2022-07-06T07:13:40;19.90;99.90
54082;DHT22;39986;50.770;0.266;2022-07-06T07:16:05;19.80;99.90
54082;DHT22;39986;50.770;0.266;2022-07-06T07:18:31;19.90;99.90
54082;DHT22;39986;50.770;0.266;2022-07-06T07:20:57;20.00;99.90
54082;DHT22;39986;50.770;0.266;2022-07-06T07:23:22;20.20;99.90
54082;DHT22;39986;50.770;0.266;2022-07-06T07:25:48;20.30;99.90
54082;DHT22;39986;50.770;0.266;2022-07-06T07:28:14;20.30;99.90
54082;DHT22;39986;50.770;0.266;2022-07-06T07:30:39;20.10;99.90
54082;DHT22;39986;50.770;0.266;2022-07-06T07:33:05;20.10;99.90
54082;DHT22;39986;50.770;0.266;2022-07-06T07:35:31;20.20;99.90
54082;DHT22;39986;50.770;0.266;2022-07-06T07:37:56;20.20;99.90
54082;DHT22;39986;50.770;0.266;2022-07-06T07:40:22;20.30;99.90
54082;DHT22;39986;50.770;0.266;2022-07-06T07:42:48;20.30;99.90
54082;DHT22;39986;50.770;0.266;2022-07-06T07:45:13;20.40;99.90
54082;DHT22;39986;50.770;0.266;2022-07-06T07:47:39;20.50;99.90
54082;DHT22;39986;50.770;0.266;2022-07-06T07:50:05;20.70;99.90
54082;DHT22;39986;50.770;0.266;2022-07-06T07:52:31;21.00;99.90
54082;DHT22;39986;50.770;0.266;2022-07-06T07:54:58;21.50;99.90
54082;DHT22;39986;50.770;0.266;2022-07-06T07:57:24;21.90;99.90
54082;DHT22;39986;50.770;0.266;2022-07-06T07:59:50;22.30;99.90
54082;DHT22;39986;50.770;0.266;2022-07-06T08:02:41;22.60;99.90
54082;DHT22;39986;50.770;0.266;2022-07-06T08:05:32;22.80;99.90
54082;DHT22;39986;50.770;0.266;2022-07-06T08:07:58;23.00;99.90
54082;DHT22;39986;50.770;0.266;2022-07-06T08:10:24;23.10;99.90
54082;DHT22;39986;50.770;0.266;2022-07-06T08:12:50;23.00;99.90
54082;DHT22;39986;50.770;0.266;2022-07-06T08:18:08;22.60;99.90
54082;DHT22;39986;50.770;0.266;2022-07-06T08:20:35;22.60;99.90
54082;DHT22;39986;50.770;0.266;2022-07-06T08:23:04;22.60;99.90
54082;DHT22;39986;50.770;0.266;2022-07-06T08:25:30;22.50;99.90
54082;DHT22;39986;50.770;0.266;2022-07-06T08:27:56;22.70;99.90
54082;DHT22;39986;50.770;0.266;2022-07-06T08:30:21;22.80;99.90
54082;DHT22;39986;50.770;0.266;2022-07-06T08:32:47;22.90;99.90
54082;DHT22;39986;50.770;0.266;2022-07-06T08:35:13;22.80;99.90
54082;DHT22;39986;50.770;0.266;2022-07-06T08:37:39;22.70;99.90
54082;DHT22;39986;50.770;0.266;2022-07-06T08:40:05;22.70;99.90
54082;DHT22;39986;50.770;0.266;2022-07-06T08:42:32;22.90;99.90
54082;DHT22;39986;50.770;0.266;2022-07-06T08:45:01;23.10;99.90
54082;DHT22;39986;50.770;0.266;2022-07-06T08:47:28;23.20;99.90
54082;DHT22;39986;50.770;0.266;2022-07-06T08:49:54;23.20;99.90
54082;DHT22;39986;50.770;0.266;2022-07-06T08:52:20;23.30;99.90
54082;DHT22;39986;50.770;0.266;2022-07-06T08:54:46;23.30;99.90
54082;DHT22;39986;50.770;0.266;2022-07-06T08:57:12;23.30;99.90
54082;DHT22;39986;50.770;0.266;2022-07-06T08:59:38;23.30;99.90
54082;DHT22;39986;50.770;0.266;2022-07-06T09:02:04;23.40;99.90
54082;DHT22;39986;50.770;0.266;2022-07-06T09:04:29;23.70;99.90
54082;DHT22;39986;50.770;0.266;2022-07-06T09:06:56;23.80;99.90
54082;DHT22;39986;50.770;0.266;2022-07-06T09:09:22;24.10;99.90
54082;DHT22;39986;50.770;0.266;2022-07-06T09:11:48;24.30;99.90
54082;DHT22;39986;50.770;0.266;2022-07-06T09:14:14;24.70;99.90
54082;DHT22;39986;50.770;0.266;2022-07-06T09:16:40;24.90;99.90
54082;DHT22;39986;50.770;0.266;2022-07-06T09:19:06;24.90;99.90
54082;DHT22;39986;50.770;0.266;2022-07-06T09:21:32;24.90;99.90
54082;DHT22;39986;50.770;0.266;2022-07-06T09:23:58;24.90;99.90
54082;DHT22;39986;50.770;0.266;2022-07-06T09:26:25;25.20;99.90
54082;DHT22;39986;50.770;0.266;2022-07-06T09:28:51;25.40;99.90
54082;DHT22;39986;50.770;0.266;2022-07-06T09:31:16;25.20;99.90
54082;DHT22;39986;50.770;0.266;2022-07-06T09:34:02;25.00;99.90
54082;DHT22;39986;50.770;0.266;2022-07-06T09:36:44;24.80;99.90
54082;DHT22;39986;50.770;0.266;2022-07-06T09:41:41;24.80;99.90
54082;DHT22;39986;50.770;0.266;2022-07-06T09:44:08;24.70;99.90
54082;DHT22;39986;50.770;0.266;2022-07-06T09:46:38;24.80;99.90
54082;DHT22;39986;50.770;0.266;2022-07-06T09:49:06;25.00;99.90
54082;DHT22;39986;50.770;0.266;2022-07-06T09:51:32;25.30;99.90
54082;DHT22;39986;50.770;0.266;2022-07-06T09:54:00;25.70;99.90
54082;DHT22;39986;50.770;0.266;2022-07-06T09:56:36;26.20;99.90
54082;DHT22;39986;50.770;0.266;2022-07-06T09:59:09;26.40;99.90
54082;DHT22;39986;50.770;0.266;2022-07-06T10:01:35;26.40;99.90
54082;DHT22;39986;50.770;0.266;2022-07-06T10:04:01;26.60;99.90
54082;DHT22;39986;50.770;0.266;2022-07-06T10:06:26;26.70;99.90
54082;DHT22;39986;50.770;0.266;2022-07-06T10:08:53;26.80;99.90
54082;DHT22;39986;50.770;0.266;2022-07-06T10:11:20;27.10;99.70
54082;DHT22;39986;50.770;0.266;2022-07-06T10:13:45;27.40;99.90
54082;DHT22;39986;50.770;0.266;2022-07-06T10:16:13;27.50;99.50
54082;DHT22;39986;50.770;0.266;2022-07-06T10:18:39;27.80;98.90
54082;DHT22;39986;50.770;0.266;2022-07-06T10:21:05;28.20;98.40
54082;DHT22;39986;50.770;0.266;2022-07-06T10:23:31;28.30;98.00
54082;DHT22;39986;50.770;0.266;2022-07-06T10:25:58;28.30;98.00
54082;DHT22;39986;50.770;0.266;2022-07-06T10:28:25;28.20;98.00
54082;DHT22;39986;50.770;0.266;2022-07-06T10:30:51;28.30;98.00
54082;DHT22;39986;50.770;0.266;2022-07-06T10:33:17;28.40;98.00
54082;DHT22;39986;50.770;0.266;2022-07-06T10:35:44;28.70;97.50
54082;DHT22;39986;50.770;0.266;2022-07-06T10:38:13;28.90;97.50
54082;DHT22;39986;50.770;0.266;2022-07-06T10:40:40;29.00;96.80
54082;DHT22;39986;50.770;0.266;2022-07-06T10:43:42;28.90;97.20
54082;DHT22;39986;50.770;0.266;2022-07-06T10:46:11;28.80;97.20
54082;DHT22;39986;50.770;0.266;2022-07-06T10:48:39;28.80;97.50
54082;DHT22;39986;50.770;0.266;2022-07-06T10:51:05;28.80;98.00
54082;DHT22;39986;50.770;0.266;2022-07-06T10:53:32;28.60;98.10
54082;DHT22;39986;50.770;0.266;2022-07-06T10:56:10;28.60;98.10
54082;DHT22;39986;50.770;0.266;2022-07-06T10:58:46;28.30;98.80
54082;DHT22;39986;50.770;0.266;2022-07-06T11:01:13;28.20;99.30
54082;DHT22;39986;50.770;0.266;2022-07-06T11:06:31;27.90;99.70
54082;DHT22;39986;50.770;0.266;2022-07-06T11:08:57;27.70;99.70
54082;DHT22;39986;50.770;0.266;2022-07-06T11:13:53;27.70;99.90
54082;DHT22;39986;50.770;0.266;2022-07-06T11:16:22;27.50;99.90
54082;DHT22;39986;50.770;0.266;2022-07-06T11:24:19;27.90;99.90
54082;DHT22;39986;50.770;0.266;2022-07-06T11:26:45;29.70;97.90
54082;DHT22;39986;50.770;0.266;2022-07-06T11:29:12;31.30;95.90
54082;DHT22;39986;50.770;0.266;2022-07-06T11:31:39;31.10;95.80
54082;DHT22;39986;50.770;0.266;2022-07-06T11:34:05;30.00;97.50
54082;DHT22;39986;50.770;0.266;2022-07-06T11:36:31;30.50;97.10
54082;DHT22;39986;50.770;0.266;2022-07-06T11:38:57;31.10;95.90
54082;DHT22;39986;50.770;0.266;2022-07-06T11:41:22;32.50;94.30
54082;DHT22;39986;50.770;0.266;2022-07-06T11:43:48;33.10;93.40
54082;DHT22;39986;50.770;0.266;2022-07-06T11:46:23;33.30;92.80
54082;DHT22;39986;50.770;0.266;2022-07-06T11:48:50;33.20;93.30
54082;DHT22;39986;50.770;0.266;2022-07-06T11:51:16;33.70;92.10
54082;DHT22;39986;50.770;0.266;2022-07-06T11:53:43;33.90;91.30
54082;DHT22;39986;50.770;0.266;2022-07-06T11:56:09;33.50;92.10
54082;DHT22;39986;50.770;0.266;2022-07-06T11:58:34;33.10;91.70
54082;DHT22;39986;50.770;0.266;2022-07-06T12:03:30;33.60;91.50
54082;DHT22;39986;50.770;0.266;2022-07-06T12:05:58;32.60;92.00
54082;DHT22;39986;50.770;0.266;2022-07-06T12:08:24;30.60;94.40
54082;DHT22;39986;50.770;0.266;2022-07-06T12:10:50;29.00;96.70
54082;DHT22;39986;50.770;0.266;2022-07-06T12:13:16;28.20;97.50
54082;DHT22;39986;50.770;0.266;2022-07-06T12:15:41;27.70;97.30
54082;DHT22;39986;50.770;0.266;2022-07-06T12:18:08;28.00;97.50
54082;DHT22;39986;50.770;0.266;2022-07-06T12:20:35;29.00;96.00
54082;DHT22;39986;50.770;0.266;2022-07-06T12:23:05;29.30;95.60
54082;DHT22;39986;50.770;0.266;2022-07-06T12:25:31;29.20;96.00
54082;DHT22;39986;50.770;0.266;2022-07-06T12:27:57;30.10;95.30
54082;DHT22;39986;50.770;0.266;2022-07-06T12:30:22;32.00;93.40
54082;DHT22;39986;50.770;0.266;2022-07-06T12:33:09;31.50;93.90
54082;DHT22;39986;50.770;0.266;2022-07-06T12:35:33;30.40;94.90
54082;DHT22;39986;50.770;0.266;2022-07-06T12:37:59;28.90;97.20
54082;DHT22;39986;50.770;0.266;2022-07-06T12:40:26;27.30;99.70
54082;DHT22;39986;50.770;0.266;2022-07-06T12:42:53;26.10;99.90
54082;DHT22;39986;50.770;0.266;2022-07-06T12:45:18;25.50;99.90
54082;DHT22;39986;50.770;0.266;2022-07-06T12:48:01;25.10;99.90
54082;DHT22;39986;50.770;0.266;2022-07-06T12:50:46;25.00;99.90
54082;DHT22;39986;50.770;0.266;2022-07-06T12:53:25;24.80;99.90
54082;DHT22;39986;50.770;0.266;2022-07-06T12:56:07;24.80;99.90
54082;DHT22;39986;50.770;0.266;2022-07-06T12:58:33;24.90;99.90
54082;DHT22;39986;50.770;0.266;2022-07-06T13:00:58;25.00;99.90
54082;DHT22;39986;50.770;0.266;2022-07-06T13:03:24;25.00;99.90
54082;DHT22;39986;50.770;0.266;2022-07-06T13:05:50;25.10;99.90
54082;DHT22;39986;50.770;0.266;2022-07-06T13:08:15;25.00;99.90
54082;DHT22;39986;50.770;0.266;2022-07-06T13:10:41;24.60;99.90
54082;DHT22;39986;50.770;0.266;2022-07-06T13:13:08;24.60;99.90
54082;DHT22;39986;50.770;0.266;2022-07-06T13:15:34;25.00;99.90
54082;DHT22;39986;50.770;0.266;2022-07-06T13:20:51;24.80;99.90
54082;DHT22;39986;50.770;0.266;2022-07-06T13:23:20;24.40;99.90
54082;DHT22;39986;50.770;0.266;2022-07-06T13:25:46;24.20;99.90
54082;DHT22;39986;50.770;0.266;2022-07-06T13:28:12;24.00;99.90
54082;DHT22;39986;50.770;0.266;2022-07-06T13:30:37;23.80;99.90
54082;DHT22;39986;50.770;0.266;2022-07-06T13:33:03;23.60;99.90
54082;DHT22;39986;50.770;0.266;2022-07-06T13:35:32;23.50;99.90
54082;DHT22;39986;50.770;0.266;2022-07-06T13:37:58;23.40;99.90
54082;DHT22;39986;50.770;0.266;2022-07-06T13:40:23;23.50;99.90
54082;DHT22;39986;50.770;0.266;2022-07-06T13:42:49;23.50;99.90
54082;DHT22;39986;50.770;0.266;2022-07-06T13:45:14;23.60;99.90
54082;DHT22;39986;50.770;0.266;2022-07-06T13:47:40;23.80;99.90
54082;DHT22;39986;50.770;0.266;2022-07-06T13:50:06;23.90;99.90
54082;DHT22;39986;50.770;0.266;2022-07-06T13:52:31;23.80;99.90
54082;DHT22;39986;50.770;0.266;2022-07-06T13:54:58;23.70;99.90
54082;DHT22;39986;50.770;0.266;2022-07-06T13:57:24;24.00;99.90
54082;DHT22;39986;50.770;0.266;2022-07-06T13:59:49;24.40;99.90
54082;DHT22;39986;50.770;0.266;2022-07-06T14:02:15;24.70;99.90
54082;DHT22;39986;50.770;0.266;2022-07-06T14:04:41;24.60;99.90
54082;DHT22;39986;50.770;0.266;2022-07-06T14:07:06;24.60;99.90
54082;DHT22;39986;50.770;0.266;2022-07-06T14:09:32;24.50;99.90
54082;DHT22;39986;50.770;0.266;2022-07-06T14:11:58;24.90;99.90
54082;DHT22;39986;50.770;0.266;2022-07-06T14:14:23;24.80;99.90
54082;DHT22;39986;50.770;0.266;2022-07-06T14:16:49;24.60;99.90
54082;DHT22;39986;50.770;0.266;2022-07-06T14:19:20;24.50;99.90
54082;DHT22;39986;50.770;0.266;2022-07-06T14:21:48;24.40;99.90
54082;DHT22;39986;50.770;0.266;2022-07-06T14:24:13;24.20;99.90
54082;DHT22;39986;50.770;0.266;2022-07-06T14:26:39;23.90;99.90
54082;DHT22;39986;50.770;0.266;2022-07-06T14:29:05;23.90;99.90
54082;DHT22;39986;50.770;0.266;2022-07-06T14:31:30;24.40;99.90
54082;DHT22;39986;50.770;0.266;2022-07-06T14:33:56;24.80;99.90
54082;DHT22;39986;50.770;0.266;2022-07-06T14:36:22;25.30;99.90
54082;DHT22;39986;50.770;0.266;2022-07-06T14:38:47;25.60;99.90
54082;DHT22;39986;50.770;0.266;2022-07-06T14:41:13;26.90;99.90
54082;DHT22;39986;50.770;0.266;2022-07-06T14:43:38;29.60;99.40
54082;DHT22;39986;50.770;0.266;2022-07-06T14:46:04;31.40;96.50
54082;DHT22;39986;50.770;0.266;2022-07-06T14:48:30;32.10;95.10
54082;DHT22;39986;50.770;0.266;2022-07-06T14:50:55;33.00;93.60
54082;DHT22;39986;50.770;0.266;2022-07-06T14:53:23;32.20;93.70
54082;DHT22;39986;50.770;0.266;2022-07-06T14:55:48;30.00;96.10
54082;DHT22;39986;50.770;0.266;2022-07-06T14:58:15;28.20;99.10
54082;DHT22;39986;50.770;0.266;2022-07-06T15:00:45;27.00;99.90
54082;DHT22;39986;50.770;0.266;2022-07-06T15:03:11;26.00;99.90
54082;DHT22;39986;50.770;0.266;2022-07-06T15:05:37;25.10;99.90
54082;DHT22;39986;50.770;0.266;2022-07-06T15:08:03;24.70;99.90
54082;DHT22;39986;50.770;0.266;2022-07-06T15:10:28;24.40;99.90
54082;DHT22;39986;50.770;0.266;2022-07-06T15:12:54;24.20;99.90
54082;DHT22;39986;50.770;0.266;2022-07-06T15:18:10;23.80;99.90
54082;DHT22;39986;50.770;0.266;2022-07-06T15:20:36;23.90;99.90
54082;DHT22;39986;50.770;0.266;2022-07-06T15:23:02;24.20;99.90
54082;DHT22;39986;50.770;0.266;2022-07-06T15:25:27;24.20;99.90
54082;DHT22;39986;50.770;0.266;2022-07-06T15:27:53;24.10;99.90
54082;DHT22;39986;50.770;0.266;2022-07-06T15:30:19;24.00;99.90
54082;DHT22;39986;50.770;0.266;2022-07-06T15:32:44;23.80;99.90
54082;DHT22;39986;50.770;0.266;2022-07-06T15:35:10;23.60;99.90
54082;DHT22;39986;50.770;0.266;2022-07-06T15:37:36;23.50;99.90
54082;DHT22;39986;50.770;0.266;2022-07-06T15:40:02;23.30;99.90
54082;DHT22;39986;50.770;0.266;2022-07-06T15:42:28;23.30;99.90
54082;DHT22;39986;50.770;0.266;2022-07-06T15:44:53;23.30;99.90
54082;DHT22;39986;50.770;0.266;2022-07-06T15:47:19;23.30;99.90
54082;DHT22;39986;50.770;0.266;2022-07-06T15:49:45;23.30;99.90
54082;DHT22;39986;50.770;0.266;2022-07-06T15:52:11;23.40;99.90